Time;durP1;ratioP1;P1;durP2;ratioP2;P2;SDS_P1;SDS_P2;PMS_P1;PMS_P2;Temp;Humidity;BMP_temperature;BMP_pressure;BME280_temperature;BME280_humidity;BME280_pressure;Samples;Min_cycle;Max_cycle;Signal;HPM_P1;HPM_P2
2022/08/07 00:01:24;;;;;;;6.78;4.22;;;13.60;99.90;;;;;;5041086;27;20045;-66
2022/08/07 00:03:50;;;;;;;6.50;4.28;;;13.60;99.90;;;;;;5024948;28;20052;-64
2022/08/07 00:06:16;;;;;;;6.05;4.15;;;13.60;99.90;;;;;;5043975;28;20418;-66
2022/08/07 00:08:42;;;;;;;7.00;4.35;;;13.60;99.90;;;;;;5064623;27;20049;-65
2022/08/07 00:11:07;;;;;;;6.57;4.57;;;13.60;99.90;;;;;;5057779;27;20443;-66
2022/08/07 00:13:36;;;;;;;7.47;4.47;;;13.50;99.90;;;;;;5038409;27;20038;-65
2022/08/07 00:16:02;;;;;;;6.28;4.50;;;13.40;99.90;;;;;;5043518;28;20502;-66
2022/08/07 00:18:28;;;;;;;6.55;4.47;;;13.40;99.90;;;;;;5038229;27;21057;-66
2022/08/07 00:20:58;;;;;;;6.85;4.50;;;13.40;99.90;;;;;;5043341;28;20125;-66
2022/08/07 00:23:24;;;;;;;6.55;4.43;;;13.30;99.90;;;;;;5069582;27;20045;-66
2022/08/07 00:25:51;;;;;;;8.07;4.63;;;13.30;99.90;;;;;;5045757;27;20041;-66
2022/08/07 00:28:16;;;;;;;6.60;4.50;;;13.30;99.90;;;;;;5052613;28;20045;-66
2022/08/07 00:30:42;;;;;;;6.93;4.53;;;13.30;99.90;;;;;;5077837;27;20042;-66
2022/08/07 00:33:07;;;;;;;6.72;4.68;;;13.20;99.90;;;;;;5028609;28;20494;-66
2022/08/07 00:35:34;;;;;;;7.80;4.20;;;13.20;99.90;;;;;;5054035;27;20119;-65
2022/08/07 00:38:00;;;;;;;8.10;4.30;;;13.20;99.90;;;;;;5048105;27;20040;-63
2022/08/07 00:40:26;;;;;;;9.27;4.88;;;13.20;99.90;;;;;;5067098;27;20526;-65
2022/08/07 00:42:52;;;;;;;8.55;5.07;;;13.20;99.90;;;;;;5074400;27;20049;-66
2022/08/07 00:45:20;;;;;;;7.55;4.70;;;13.10;99.90;;;;;;5048183;27;20563;-65
2022/08/07 00:47:46;;;;;;;7.45;5.15;;;13.10;99.90;;;;;;5070652;27;20048;-63
2022/08/07 00:50:12;;;;;;;8.25;4.57;;;13.10;99.90;;;;;;5043048;28;20037;-65
2022/08/07 00:52:37;;;;;;;8.70;4.95;;;13.10;99.90;;;;;;5046508;28;20402;-66
2022/08/07 00:55:03;;;;;;;9.52;5.28;;;13.00;99.90;;;;;;5047562;27;20033;-63
2022/08/07 00:57:29;;;;;;;7.53;4.97;;;13.00;99.90;;;;;;5046844;28;20475;-63
2022/08/07 00:59:55;;;;;;;7.63;5.25;;;13.00;99.90;;;;;;5046084;28;20048;-64
2022/08/07 01:02:22;;;;;;;8.25;4.78;;;13.00;99.90;;;;;;5046562;27;20029;-64
2022/08/07 01:04:48;;;;;;;7.60;4.75;;;13.00;99.90;;;;;;5050795;28;20052;-64
2022/08/07 01:07:15;;;;;;;8.02;4.70;;;12.90;99.90;;;;;;5046967;27;20044;-64
2022/08/07 01:09:41;;;;;;;7.28;4.25;;;12.90;99.90;;;;;;5047619;27;20041;-64
2022/08/07 01:12:07;;;;;;;7.25;4.45;;;12.80;99.90;;;;;;5047787;28;20036;-64
2022/08/07 01:14:33;;;;;;;6.90;4.43;;;12.80;99.90;;;;;;5044651;27;20045;-64
2022/08/07 01:16:59;;;;;;;8.88;4.35;;;12.80;99.90;;;;;;5047036;27;20036;-63
2022/08/07 01:19:28;;;;;;;6.68;4.32;;;12.70;99.90;;;;;;5044270;28;20101;-64
2022/08/07 01:21:54;;;;;;;7.18;4.32;;;12.70;99.90;;;;;;5050625;27;20041;-64
2022/08/07 01:24:21;;;;;;;6.82;4.40;;;12.70;99.90;;;;;;5046950;28;20491;-63
2022/08/07 01:26:47;;;;;;;6.90;4.53;;;12.60;99.90;;;;;;5047443;27;20495;-65
2022/08/07 01:29:13;;;;;;;6.00;4.25;;;12.70;99.90;;;;;;5028032;28;20041;-64
2022/08/07 01:31:39;;;;;;;7.50;4.72;;;12.60;99.90;;;;;;5042402;27;20113;-64
2022/08/07 01:34:05;;;;;;;7.03;4.60;;;12.60;99.90;;;;;;5007265;28;20037;-63
2022/08/07 01:36:32;;;;;;;7.38;4.53;;;12.60;99.90;;;;;;5029376;28;20544;-64
2022/08/07 01:38:58;;;;;;;7.20;4.32;;;12.60;99.90;;;;;;5044964;28;20025;-63
2022/08/07 01:41:24;;;;;;;6.90;4.50;;;12.50;99.90;;;;;;5037315;27;20040;-64
2022/08/07 01:43:50;;;;;;;6.88;4.45;;;12.50;99.90;;;;;;5030060;28;20376;-63
2022/08/07 01:46:17;;;;;;;5.90;3.80;;;12.50;99.90;;;;;;5041996;28;20084;-63
2022/08/07 01:48:44;;;;;;;7.80;4.70;;;12.40;99.90;;;;;;5046981;28;20105;-63
2022/08/07 01:51:22;;;;;;;7.55;4.38;;;12.40;99.90;;;;;;5045969;28;20048;-63
2022/08/07 01:53:51;;;;;;;7.63;4.45;;;12.40;99.90;;;;;;5028581;28;20536;-63
2022/08/07 01:56:28;;;;;;;7.35;4.60;;;12.40;99.90;;;;;;5051307;27;20527;-63
2022/08/07 01:59:03;;;;;;;6.68;4.53;;;12.40;99.90;;;;;;5045093;28;20033;-63
2022/08/07 02:01:35;;;;;;;6.75;4.60;;;12.40;99.90;;;;;;5033369;27;20511;-64
2022/08/07 02:04:40;;;;;;;6.82;4.40;;;12.40;99.90;;;;;;5033432;28;20045;-64
2022/08/07 02:07:08;;;;;;;6.75;4.60;;;12.40;99.90;;;;;;5032447;28;20048;-65
2022/08/07 02:09:34;;;;;;;6.32;4.68;;;12.40;99.90;;;;;;5044626;28;20025;-64
2022/08/07 02:12:15;;;;;;;7.07;4.88;;;12.40;99.90;;;;;;5070589;28;20037;-66
2022/08/07 02:14:44;;;;;;;5.97;4.40;;;12.30;99.90;;;;;;5045518;27;20094;-63
2022/08/07 02:17:13;;;;;;;5.85;4.07;;;12.30;99.90;;;;;;5048043;28;20040;-64
2022/08/07 02:19:43;;;;;;;6.30;4.22;;;12.30;99.90;;;;;;5025794;28;20054;-63
2022/08/07 02:22:11;;;;;;;6.97;4.30;;;12.30;99.90;;;;;;5046530;27;20041;-63
2022/08/07 02:24:38;;;;;;;6.90;4.75;;;12.30;99.90;;;;;;5046735;28;20116;-63
2022/08/07 02:27:04;;;;;;;7.70;4.68;;;12.30;99.90;;;;;;5041420;27;20062;-63
2022/08/07 02:29:31;;;;;;;7.25;4.47;;;12.30;99.90;;;;;;5035932;28;20110;-63
2022/08/07 02:31:59;;;;;;;6.72;4.57;;;12.30;99.90;;;;;;5040117;28;20045;-63
2022/08/07 02:34:27;;;;;;;6.53;4.57;;;12.30;99.90;;;;;;5023312;28;20049;-63
2022/08/07 02:36:54;;;;;;;7.03;4.70;;;12.30;99.90;;;;;;5050643;27;20052;-64
2022/08/07 02:39:20;;;;;;;7.75;5.20;;;12.30;99.90;;;;;;5044705;27;20090;-63
2022/08/07 02:41:47;;;;;;;7.72;4.43;;;12.30;99.90;;;;;;5023035;28;20037;-63
2022/08/07 02:44:14;;;;;;;8.10;4.63;;;12.30;99.90;;;;;;5105533;27;20045;-64
2022/08/07 02:46:40;;;;;;;6.32;4.50;;;12.20;99.90;;;;;;5048173;27;20037;-63
2022/08/07 02:49:06;;;;;;;8.07;4.88;;;12.20;99.90;;;;;;5049486;27;20072;-63
2022/08/07 02:51:35;;;;;;;7.25;4.75;;;12.20;99.90;;;;;;5043897;27;20487;-63
2022/08/07 02:54:03;;;;;;;7.50;4.57;;;12.20;99.90;;;;;;5063893;27;20096;-66
2022/08/07 02:56:31;;;;;;;6.63;4.63;;;12.20;99.90;;;;;;5091520;27;20036;-64
2022/08/07 02:59:00;;;;;;;8.63;4.75;;;12.20;99.90;;;;;;5087183;27;20052;-65
2022/08/07 03:01:27;;;;;;;7.55;4.72;;;12.20;99.90;;;;;;5049198;28;20051;-63
2022/08/07 03:03:55;;;;;;;7.90;4.63;;;11.80;99.90;;;;;;5049996;27;20041;-63
2022/08/07 03:06:22;;;;;;;6.68;4.15;;;12.20;99.90;;;;;;5049499;27;20037;-63
2022/08/07 03:08:48;;;;;;;6.97;4.32;;;12.20;99.90;;;;;;5030161;28;20132;-64
2022/08/07 03:11:14;;;;;;;7.45;4.07;;;12.20;99.90;;;;;;5049409;27;20048;-63
2022/08/07 03:13:40;;;;;;;8.25;4.72;;;12.10;99.90;;;;;;5075965;27;20433;-64
2022/08/07 03:16:06;;;;;;;7.78;4.55;;;12.20;99.90;;;;;;5043259;27;20426;-63
2022/08/07 03:18:32;;;;;;;6.30;4.55;;;12.20;99.90;;;;;;5048170;28;20029;-64
2022/08/07 03:20:58;;;;;;;8.93;4.80;;;12.10;99.90;;;;;;5048241;28;20045;-64
2022/08/07 03:23:26;;;;;;;6.97;4.78;;;12.10;99.90;;;;;;5049320;28;20051;-65
2022/08/07 03:25:54;;;;;;;6.97;4.20;;;12.10;99.90;;;;;;5032832;28;20059;-64
2022/08/07 03:28:20;;;;;;;6.80;4.53;;;12.00;99.90;;;;;;5043505;28;20052;-64
2022/08/07 03:30:46;;;;;;;8.05;5.20;;;12.00;99.90;;;;;;5031799;28;20123;-63
2022/08/07 03:33:13;;;;;;;7.65;4.85;;;12.00;99.90;;;;;;5045827;27;20132;-63
2022/08/07 03:35:40;;;;;;;9.15;5.10;;;12.00;99.90;;;;;;5029888;28;20033;-63
2022/08/07 03:38:08;;;;;;;6.97;4.90;;;11.90;99.90;;;;;;5048400;27;20490;-65
2022/08/07 03:40:35;;;;;;;7.35;4.82;;;11.90;99.90;;;;;;5028230;28;20038;-66
2022/08/07 03:43:01;;;;;;;7.22;4.15;;;11.80;99.90;;;;;;5052462;28;20494;-64
2022/08/07 03:45:28;;;;;;;6.40;4.32;;;11.80;99.90;;;;;;5049143;27;20124;-64
2022/08/07 03:47:55;;;;;;;6.57;4.38;;;11.70;99.90;;;;;;5047692;27;20103;-64
2022/08/07 03:50:23;;;;;;;8.75;4.47;;;11.70;99.90;;;;;;5029050;28;20037;-64
2022/08/07 03:52:51;;;;;;;7.03;4.43;;;11.70;99.90;;;;;;5048991;28;20451;-63
2022/08/07 03:55:16;;;;;;;7.88;4.57;;;11.70;99.90;;;;;;5049591;28;20428;-64
2022/08/07 03:57:43;;;;;;;6.72;4.72;;;11.60;99.90;;;;;;5034036;27;20098;-63
2022/08/07 04:00:10;;;;;;;7.25;5.03;;;11.60;99.90;;;;;;5048749;27;20048;-64
2022/08/07 04:02:36;;;;;;;6.68;4.55;;;11.60;99.90;;;;;;5083627;27;20083;-63
2022/08/07 04:05:04;;;;;;;8.77;4.82;;;11.60;99.90;;;;;;5030884;28;20073;-63
2022/08/07 04:07:30;;;;;;;6.95;4.38;;;11.60;99.90;;;;;;5076839;27;20112;-63
2022/08/07 04:09:56;;;;;;;7.32;4.85;;;11.60;99.90;;;;;;5048220;28;20462;-63
2022/08/07 04:12:22;;;;;;;7.88;4.93;;;11.60;99.90;;;;;;5030291;28;20398;-63
2022/08/07 04:14:49;;;;;;;9.38;5.43;;;11.60;99.90;;;;;;5030047;27;20454;-63
2022/08/07 04:17:15;;;;;;;8.57;5.82;;;11.60;99.90;;;;;;5047502;27;20138;-67
2022/08/07 04:19:41;;;;;;;10.02;6.22;;;11.50;99.90;;;;;;5042249;27;20391;-65
2022/08/07 04:22:07;;;;;;;8.55;5.97;;;11.60;99.90;;;;;;5044226;27;20041;-67
2022/08/07 04:24:34;;;;;;;8.55;5.78;;;11.60;99.90;;;;;;5048543;27;20032;-64
2022/08/07 04:27:01;;;;;;;10.18;4.90;;;11.60;99.90;;;;;;5030680;28;20045;-65
2022/08/07 04:29:27;;;;;;;8.18;5.15;;;11.60;99.90;;;;;;5041386;28;20033;-64
2022/08/07 04:31:55;;;;;;;9.70;5.45;;;11.60;99.90;;;;;;5046250;28;20037;-66
2022/08/07 04:34:22;;;;;;;8.88;5.18;;;11.60;99.90;;;;;;5048102;28;20040;-64
2022/08/07 04:36:47;;;;;;;8.38;5.40;;;11.60;99.90;;;;;;5052921;27;20029;-65
2022/08/07 04:39:13;;;;;;;7.82;5.13;;;11.60;99.90;;;;;;5047648;28;20410;-64
2022/08/07 04:41:39;;;;;;;8.27;5.43;;;11.60;99.90;;;;;;5048588;28;20033;-64
2022/08/07 04:44:05;;;;;;;9.27;5.50;;;11.60;99.90;;;;;;5048280;27;20128;-64
2022/08/07 04:46:38;;;;;;;9.50;5.60;;;11.60;99.90;;;;;;5042413;28;20078;-64
2022/08/07 04:49:15;;;;;;;9.10;5.75;;;11.60;99.90;;;;;;5047524;27;20033;-66
2022/08/07 04:52:04;;;;;;;8.93;6.03;;;11.60;99.90;;;;;;5044105;28;20045;-64
2022/08/07 04:55:05;;;;;;;9.00;5.90;;;11.60;99.90;;;;;;5042931;28;20400;-64
2022/08/07 04:57:56;;;;;;;9.73;6.00;;;11.60;99.90;;;;;;5020676;28;20042;-65
2022/08/07 05:00:56;;;;;;;9.88;6.30;;;11.70;99.90;;;;;;5046636;28;20510;-66
2022/08/07 05:03:30;;;;;;;8.98;5.90;;;11.70;99.90;;;;;;5040249;28;20048;-66
2022/08/07 05:06:15;;;;;;;8.32;5.75;;;11.70;99.90;;;;;;5054534;28;20045;-63
2022/08/07 05:08:49;;;;;;;9.05;5.70;;;11.70;99.90;;;;;;5034932;28;20072;-64
2022/08/07 05:11:29;;;;;;;9.23;5.25;;;11.70;99.90;;;;;;5054834;27;20522;-65
2022/08/07 05:14:01;;;;;;;8.35;5.32;;;11.70;99.90;;;;;;5048150;27;20456;-66
2022/08/07 05:16:29;;;;;;;;;;;11.70;99.90;;;;;;5013418;28;20045;-63
2022/08/07 05:19:00;;;;;;;9.18;5.65;;;11.70;99.90;;;;;;5049137;28;19916;-62
2022/08/07 05:21:29;;;;;;;9.18;5.60;;;11.70;99.90;;;;;;5046859;28;20432;-62
2022/08/07 05:24:05;;;;;;;9.43;5.75;;;11.80;99.90;;;;;;5040445;27;20519;-67
2022/08/07 05:26:32;;;;;;;8.38;5.53;;;11.70;99.90;;;;;;5031331;28;20126;-62
2022/08/07 05:29:01;;;;;;;8.15;5.38;;;11.70;99.90;;;;;;5044293;28;20491;-62
2022/08/07 05:31:32;;;;;;;9.32;5.82;;;11.70;99.90;;;;;;5044666;28;20037;-62
2022/08/07 05:33:59;;;;;;;9.45;5.85;;;11.80;99.90;;;;;;5047431;28;20060;-62
2022/08/07 05:36:26;;;;;;;10.18;5.93;;;11.80;99.90;;;;;;5038512;28;20090;-62
2022/08/07 05:38:53;;;;;;;11.88;6.85;;;11.80;99.90;;;;;;5039908;28;20049;-63
2022/08/07 05:41:20;;;;;;;9.88;6.40;;;11.90;99.90;;;;;;5058396;27;20044;-62
2022/08/07 05:43:50;;;;;;;11.45;6.78;;;11.90;99.90;;;;;;5042047;28;20567;-63
2022/08/07 05:46:18;;;;;;;12.93;6.95;;;12.00;99.90;;;;;;5043008;27;20041;-64
2022/08/07 05:48:44;;;;;;;11.05;7.07;;;12.00;99.90;;;;;;5034447;27;20040;-67
2022/08/07 05:51:11;;;;;;;11.52;6.97;;;12.10;99.90;;;;;;5045564;27;20391;-63
2022/08/07 05:53:37;;;;;;;11.13;7.18;;;12.10;99.90;;;;;;5033081;28;20041;-62
2022/08/07 05:56:08;;;;;;;12.18;7.20;;;12.10;99.90;;;;;;5044657;27;20036;-63
2022/08/07 05:58:35;;;;;;;12.05;7.38;;;12.20;99.90;;;;;;5040062;27;20036;-62
2022/08/07 06:01:02;;;;;;;11.95;7.53;;;12.20;99.90;;;;;;5063691;27;20051;-62
2022/08/07 06:03:29;;;;;;;12.05;7.60;;;12.30;99.90;;;;;;5049784;28;20049;-67
2022/08/07 06:05:56;;;;;;;11.45;7.60;;;12.30;99.90;;;;;;5046574;27;20075;-62
2022/08/07 06:08:22;;;;;;;12.38;7.90;;;12.40;99.90;;;;;;5061920;27;20096;-66
2022/08/07 06:10:49;;;;;;;11.93;7.95;;;12.40;99.90;;;;;;5045771;27;20033;-66
2022/08/07 06:13:15;;;;;;;13.45;8.05;;;12.50;99.90;;;;;;5052256;28;20079;-63
2022/08/07 06:15:42;;;;;;;13.52;8.43;;;12.50;99.90;;;;;;5053172;28;20421;-66
2022/08/07 06:18:07;;;;;;;12.98;7.60;;;12.60;99.90;;;;;;5071754;27;20037;-64
2022/08/07 06:20:37;;;;;;;13.93;7.82;;;12.70;99.90;;;;;;5034952;27;20040;-63
2022/08/07 06:23:05;;;;;;;11.02;7.68;;;12.80;99.90;;;;;;5050014;27;20501;-64
2022/08/07 06:25:32;;;;;;;12.10;7.57;;;12.80;99.90;;;;;;5050735;27;20029;-63
2022/08/07 06:28:08;;;;;;;13.02;7.97;;;12.80;99.90;;;;;;5049288;28;20125;-63
2022/08/07 06:30:38;;;;;;;14.75;8.68;;;12.90;99.90;;;;;;5076257;27;20029;-62
2022/08/07 06:33:06;;;;;;;15.52;9.13;;;13.00;99.90;;;;;;5056743;28;20041;-63
2022/08/07 06:35:34;;;;;;;14.35;9.70;;;13.10;99.90;;;;;;5042368;27;20036;-62
2022/08/07 06:38:00;;;;;;;16.70;10.95;;;13.20;99.90;;;;;;5031936;28;20063;-63
2022/08/07 06:40:28;;;;;;;17.90;11.57;;;13.30;99.90;;;;;;5045337;27;20030;-63
2022/08/07 06:42:56;;;;;;;19.08;11.98;;;13.30;99.90;;;;;;5045131;28;20124;-63
2022/08/07 06:45:23;;;;;;;17.92;10.40;;;13.40;99.90;;;;;;5045192;28;20126;-64
2022/08/07 06:47:49;;;;;;;17.40;10.70;;;13.50;99.90;;;;;;5054455;27;20044;-68
2022/08/07 06:50:15;;;;;;;15.85;10.75;;;13.60;99.90;;;;;;5049770;28;20377;-68
2022/08/07 06:52:45;;;;;;;17.42;11.20;;;13.60;99.90;;;;;;5073482;27;20038;-68
2022/08/07 06:55:15;;;;;;;16.45;11.32;;;13.70;99.90;;;;;;5048695;27;20120;-63
2022/08/07 06:57:43;;;;;;;20.42;12.23;;;13.70;99.90;;;;;;5053693;27;20046;-62
2022/08/07 07:00:09;;;;;;;18.65;10.73;;;13.80;99.90;;;;;;5042875;28;20029;-63
2022/08/07 07:02:36;;;;;;;18.95;11.63;;;13.90;99.90;;;;;;5047484;28;20037;-62
2022/08/07 07:05:02;;;;;;;16.80;10.57;;;14.00;99.90;;;;;;5079977;27;20077;-67
2022/08/07 07:07:28;;;;;;;17.15;10.45;;;14.10;99.90;;;;;;5047408;27;20093;-63
2022/08/07 07:09:54;;;;;;;16.58;10.65;;;14.10;99.90;;;;;;5045543;27;20029;-66
2022/08/07 07:12:38;;;;;;;15.48;10.38;;;14.10;99.90;;;;;;5045039;28;20563;-63
2022/08/07 07:15:11;;;;;;;17.33;11.02;;;14.20;99.90;;;;;;5043277;27;20476;-74
2022/08/07 07:17:40;;;;;;;13.10;9.30;;;14.30;99.90;;;;;;5044165;28;20077;-63
2022/08/07 07:20:17;;;;;;;13.10;9.45;;;14.40;99.90;;;;;;5063453;27;20617;-63
2022/08/07 07:22:44;;;;;;;15.05;9.50;;;14.50;99.90;;;;;;5044140;28;20085;-62
2022/08/07 07:25:12;;;;;;;11.57;8.40;;;14.60;99.90;;;;;;5046127;27;20039;-64
2022/08/07 07:27:43;;;;;;;12.40;8.45;;;14.60;99.90;;;;;;5048451;28;20033;-62
2022/08/07 07:30:11;;;;;;;11.80;8.00;;;14.70;99.90;;;;;;5031274;28;20402;-63
2022/08/07 07:32:39;;;;;;;11.55;7.57;;;14.70;99.90;;;;;;5059897;27;20037;-63
2022/08/07 07:35:08;;;;;;;14.25;8.52;;;14.80;99.90;;;;;;5020727;28;20503;-65
2022/08/07 07:37:37;;;;;;;12.32;7.90;;;14.90;99.90;;;;;;5053233;27;20115;-63
2022/08/07 07:40:14;;;;;;;11.05;7.68;;;15.00;99.90;;;;;;5042704;27;20040;-63
2022/08/07 07:42:40;;;;;;;11.00;7.38;;;15.00;99.90;;;;;;5070239;27;20048;-63
2022/08/07 07:45:08;;;;;;;9.85;6.53;;;15.10;99.90;;;;;;5093946;27;20045;-62
2022/08/07 07:47:39;;;;;;;10.18;6.47;;;15.20;99.90;;;;;;5029377;27;20040;-63
2022/08/07 07:50:08;;;;;;;12.13;6.50;;;15.20;99.90;;;;;;5031890;27;20053;-66
2022/08/07 07:52:36;;;;;;;11.57;6.38;;;15.30;99.90;;;;;;5038049;27;20041;-62
2022/08/07 07:55:02;;;;;;;7.80;5.38;;;15.30;99.90;;;;;;5048671;28;20384;-63
2022/08/07 07:57:30;;;;;;;8.65;5.57;;;15.40;99.90;;;;;;5046315;27;20490;-62
2022/08/07 07:59:57;;;;;;;8.95;5.10;;;15.40;99.90;;;;;;5046780;27;20045;-62
2022/08/07 08:02:25;;;;;;;7.85;5.05;;;15.50;99.90;;;;;;5073313;27;20112;-62
2022/08/07 08:04:53;;;;;;;6.90;5.13;;;15.60;99.90;;;;;;5015971;28;20060;-65
2022/08/07 08:07:19;;;;;;;7.68;5.10;;;15.70;99.90;;;;;;5049307;27;20052;-63
2022/08/07 08:09:49;;;;;;;7.28;5.22;;;15.70;99.90;;;;;;5042260;27;20025;-63
2022/08/07 08:12:16;;;;;;;8.15;5.10;;;15.80;99.90;;;;;;5017396;28;20491;-63
2022/08/07 08:14:42;;;;;;;7.78;4.93;;;15.90;99.90;;;;;;5048309;27;20044;-64
2022/08/07 08:17:11;;;;;;;9.48;4.70;;;15.90;99.90;;;;;;5044084;27;20112;-65
2022/08/07 08:19:39;;;;;;;7.10;4.88;;;16.00;99.90;;;;;;5031964;27;20043;-63
2022/08/07 08:27:40;;;;;;;7.80;5.00;;;16.30;99.90;;;;;;5026839;28;20041;-62
2022/08/07 08:30:09;;;;;;;7.95;4.80;;;16.30;99.90;;;;;;5052539;27;20132;-67
2022/08/07 08:32:38;;;;;;;6.40;4.72;;;16.50;99.90;;;;;;5032125;28;20120;-64
2022/08/07 08:35:08;;;;;;;6.65;4.50;;;16.60;99.90;;;;;;5034378;27;20182;-66
2022/08/07 08:37:36;;;;;;;7.88;4.68;;;16.80;99.90;;;;;;5030662;28;20480;-63
2022/08/07 08:40:08;;;;;;;8.48;5.00;;;17.00;99.90;;;;;;5034595;27;20036;-66
2022/08/07 08:42:51;;;;;;;6.53;4.40;;;17.20;99.90;;;;;;5021577;27;20033;-62
2022/08/07 08:45:59;;;;;;;9.23;5.28;;;17.60;99.90;;;;;;5012170;28;20046;-64
2022/08/07 08:48:50;;;;;;;7.82;4.80;;;17.90;99.90;;;;;;5033594;27;20061;-64
2022/08/07 08:51:23;;;;;;;6.55;4.47;;;18.30;99.90;;;;;;5031738;27;20115;-63
2022/08/07 08:54:19;;;;;;;7.57;4.50;;;18.40;99.90;;;;;;5020130;27;20087;-67
2022/08/07 08:56:48;;;;;;;7.03;4.20;;;18.60;99.90;;;;;;5032170;28;20042;-69
2022/08/07 08:59:39;;;;;;;6.45;3.60;;;18.90;99.90;;;;;;5032038;27;20106;-63
2022/08/07 09:02:38;;;;;;;5.57;3.60;;;19.10;99.90;;;;;;5034952;27;20446;-67
2022/08/07 09:05:06;;;;;;;6.28;3.50;;;19.40;99.90;;;;;;5029486;28;20046;-64
2022/08/07 09:07:37;;;;;;;6.45;3.80;;;19.80;99.90;;;;;;5023167;27;20499;-64
2022/08/07 09:10:33;;;;;;;5.00;3.40;;;20.00;98.90;;;;;;5023319;28;20055;-64
2022/08/07 09:13:42;;;;;;;5.40;3.40;;;20.10;96.80;;;;;;5025271;27;20384;-66
2022/08/07 09:16:20;;;;;;;5.03;3.30;;;20.30;94.90;;;;;;5043148;27;20388;-65
2022/08/07 09:19:21;;;;;;;5.32;3.45;;;20.50;96.90;;;;;;5040564;28;20113;-66
2022/08/07 09:22:09;;;;;;;4.68;3.20;;;20.70;94.70;;;;;;5040398;28;20041;-64
2022/08/07 09:24:55;;;;;;;6.22;3.28;;;20.90;95.20;;;;;;5039271;28;20051;-64
2022/08/07 09:27:32;;;;;;;5.10;3.17;;;21.00;92.60;;;;;;5034990;27;20438;-64
2022/08/07 09:30:05;;;;;;;4.53;2.90;;;21.10;93.00;;;;;;5085730;27;20037;-67
2022/08/07 09:32:43;;;;;;;4.88;3.10;;;21.20;93.70;;;;;;5029999;27;20045;-64
2022/08/07 09:35:27;;;;;;;7.72;3.00;;;21.10;93.40;;;;;;5057111;27;20045;-64
2022/08/07 09:38:10;;;;;;;4.80;2.80;;;21.10;91.80;;;;;;5036033;28;20062;-64
2022/08/07 09:40:57;;;;;;;3.70;2.33;;;21.30;92.70;;;;;;5022609;28;20551;-66
2022/08/07 09:43:44;;;;;;;5.82;2.90;;;21.50;92.30;;;;;;5039054;27;20036;-63
2022/08/07 09:46:20;;;;;;;5.53;2.63;;;21.70;91.40;;;;;;5039081;28;20036;-64
2022/08/07 09:49:14;;;;;;;2.83;2.30;;;21.80;90.20;;;;;;5017643;28;20080;-64
2022/08/07 09:52:07;;;;;;;4.78;2.80;;;22.00;89.80;;;;;;5017360;28;20063;-63
2022/08/07 09:54:54;;;;;;;5.95;2.90;;;21.90;86.50;;;;;;5028880;27;20041;-64
2022/08/07 09:57:28;;;;;;;5.45;2.70;;;21.80;89.00;;;;;;5028845;28;20048;-68
2022/08/07 10:00:23;;;;;;;4.47;2.97;;;21.90;89.60;;;;;;5041006;28;20075;-63
2022/08/07 10:03:41;;;;;;;4.15;3.00;;;21.80;85.30;;;;;;5037062;28;21350;-67
2022/08/07 10:06:30;;;;;;;3.78;2.42;;;21.90;85.40;;;;;;5040305;27;20037;-68
2022/08/07 10:09:01;;;;;;;3.33;2.40;;;22.20;88.30;;;;;;5043308;28;20053;-63
2022/08/07 10:11:36;;;;;;;3.65;2.47;;;22.50;90.00;;;;;;5023773;28;20514;-64
2022/08/07 10:14:27;;;;;;;3.17;2.45;;;22.70;85.70;;;;;;5025345;28;20045;-64
2022/08/07 10:17:26;;;;;;;4.05;2.47;;;22.70;83.20;;;;;;5027654;28;20044;-63
2022/08/07 10:20:20;;;;;;;3.28;2.55;;;22.60;83.70;;;;;;5037973;28;20041;-64
2022/08/07 10:23:01;;;;;;;4.07;2.70;;;22.50;81.80;;;;;;5043743;28;20487;-63
2022/08/07 10:25:42;;;;;;;6.15;2.58;;;22.50;83.50;;;;;;5041563;27;20079;-63
2022/08/07 10:28:14;;;;;;;4.60;2.60;;;22.40;79.10;;;;;;5040385;28;20044;-64
2022/08/07 10:31:04;;;;;;;2.72;2.40;;;22.30;83.30;;;;;;5046847;27;20045;-64
2022/08/07 10:33:50;;;;;;;5.18;2.88;;;22.30;84.30;;;;;;5044937;27;20041;-64
2022/08/07 10:36:50;;;;;;;3.95;2.55;;;22.40;81.70;;;;;;5023099;28;20045;-63
2022/08/07 10:39:46;;;;;;;4.50;2.75;;;22.50;82.60;;;;;;5043819;27;20038;-64
2022/08/07 10:42:14;;;;;;;3.80;2.45;;;22.90;82.00;;;;;;5026075;28;20070;-64
2022/08/07 10:44:46;;;;;;;3.17;2.13;;;23.20;82.20;;;;;;5027685;28;20076;-63
2022/08/07 10:47:41;;;;;;;4.00;2.40;;;23.40;80.70;;;;;;5038469;27;20502;-65
2022/08/07 10:50:20;;;;;;;3.25;2.03;;;23.50;79.10;;;;;;5058865;28;20049;-65
2022/08/07 10:52:58;;;;;;;4.15;2.30;;;23.80;77.80;;;;;;5042337;27;20045;-65
2022/08/07 10:55:38;;;;;;;5.13;2.33;;;24.00;76.60;;;;;;5042599;27;20384;-65
2022/08/07 10:58:25;;;;;;;2.15;1.92;;;24.10;78.00;;;;;;5041102;27;20041;-65
2022/08/07 11:00:58;;;;;;;2.45;2.20;;;24.20;73.40;;;;;;5041985;28;20037;-66
2022/08/07 11:03:44;;;;;;;2.70;1.92;;;24.30;74.30;;;;;;5039134;28;20037;-64
2022/08/07 11:06:23;;;;;;;2.33;1.88;;;24.50;73.40;;;;;;5059161;27;20124;-65
2022/08/07 11:09:13;;;;;;;3.10;1.77;;;24.80;71.80;;;;;;5031919;27;20102;-64
2022/08/07 11:11:46;;;;;;;2.92;1.98;;;25.00;68.40;;;;;;5043466;27;20064;-63
2022/08/07 11:14:33;;;;;;;2.55;2.00;;;25.10;69.70;;;;;;5091296;27;20448;-64
2022/08/07 11:17:44;;;;;;;2.72;2.10;;;25.20;66.40;;;;;;5043853;27;20416;-67
2022/08/07 11:20:23;;;;;;;2.67;2.10;;;25.00;63.00;;;;;;5048564;27;20418;-63
2022/08/07 11:23:01;;;;;;;3.15;2.30;;;24.60;64.60;;;;;;5065590;27;20171;-65
2022/08/07 11:25:30;;;;;;;2.15;1.80;;;24.40;65.90;;;;;;5048355;28;20534;-64
2022/08/07 11:28:04;;;;;;;2.85;1.95;;;24.30;67.10;;;;;;5048972;28;20048;-64
2022/08/07 11:30:50;;;;;;;1.88;1.73;;;24.20;65.80;;;;;;5060174;27;20029;-65
2022/08/07 11:33:36;;;;;;;3.15;2.03;;;24.20;64.10;;;;;;5073032;27;20060;-64
2022/08/07 11:36:17;;;;;;;2.65;1.88;;;24.30;65.20;;;;;;5022073;28;20053;-64
2022/08/07 11:38:51;;;;;;;;;;;24.30;65.70;;;;;;5070556;27;20037;-67
2022/08/07 11:41:22;;;;;;;2.30;2.08;;;24.60;62.90;;;;;;5048660;28;19924;-63
2022/08/07 11:44:23;;;;;;;3.30;1.70;;;24.80;63.10;;;;;;5048749;27;20045;-65
2022/08/07 11:47:11;;;;;;;2.25;1.88;;;24.90;60.80;;;;;;5033314;27;20129;-64
2022/08/07 11:50:06;;;;;;;1.80;1.70;;;25.10;60.60;;;;;;5035311;27;20073;-63
2022/08/07 11:52:41;;;;;;;3.15;1.92;;;25.30;60.40;;;;;;5064194;27;20050;-64
2022/08/07 11:55:09;;;;;;;5.15;2.45;;;25.50;60.60;;;;;;5048226;27;20088;-63
2022/08/07 11:58:14;;;;;;;1.70;1.60;;;25.60;58.80;;;;;;5037118;27;20041;-65
2022/08/07 12:01:00;;;;;;;2.70;2.00;;;25.50;58.20;;;;;;5049929;28;20059;-64
2022/08/07 12:04:05;;;;;;;1.98;1.88;;;25.40;58.30;;;;;;5034678;28;20037;-65
2022/08/07 12:06:31;;;;;;;2.88;2.08;;;25.50;57.70;;;;;;5023921;28;20086;-63
2022/08/07 12:09:25;;;;;;;5.45;2.40;;;25.50;58.40;;;;;;5048252;28;20121;-63
2022/08/07 12:12:03;;;;;;;5.00;2.22;;;25.30;56.50;;;;;;5029393;28;20045;-64
2022/08/07 12:14:35;;;;;;;2.65;2.00;;;25.20;58.00;;;;;;5047181;27;20037;-63
2022/08/07 12:17:10;;;;;;;2.38;2.00;;;25.10;57.40;;;;;;5043147;27;20511;-63
2022/08/07 12:20:01;;;;;;;2.63;1.88;;;25.00;56.50;;;;;;5033469;27;20040;-63
2022/08/07 12:22:38;;;;;;;2.50;2.10;;;25.00;56.80;;;;;;5042970;27;20041;-65
2022/08/07 12:25:52;;;;;;;1.80;1.65;;;25.00;58.00;;;;;;5032175;27;20099;-63
2022/08/07 12:28:50;;;;;;;4.28;2.03;;;25.10;55.90;;;;;;5027492;27;20415;-64
2022/08/07 12:31:42;;;;;;;5.82;2.25;;;25.00;55.30;;;;;;5078696;27;20053;-63
2022/08/07 12:34:10;;;;;;;2.75;2.00;;;24.90;56.90;;;;;;5036705;27;20045;-63
2022/08/07 12:36:37;;;;;;;3.03;1.75;;;25.00;57.60;;;;;;5033117;28;20038;-65
2022/08/07 12:39:07;;;;;;;2.78;2.10;;;25.10;58.40;;;;;;5038774;28;20052;-63
2022/08/07 12:41:35;;;;;;;2.25;1.85;;;25.10;58.40;;;;;;5051055;28;20036;-64
2022/08/07 12:44:04;;;;;;;1.77;1.67;;;25.20;58.30;;;;;;5045679;28;20487;-64
2022/08/07 12:46:53;;;;;;;1.98;1.80;;;25.40;58.50;;;;;;5045451;28;20380;-63
2022/08/07 12:49:31;;;;;;;2.20;1.80;;;25.50;57.50;;;;;;5070249;27;20044;-64
2022/08/07 12:52:07;;;;;;;2.03;1.80;;;25.60;57.70;;;;;;5009756;28;20045;-63
2022/08/07 12:55:08;;;;;;;2.38;1.98;;;25.80;57.20;;;;;;5048083;27;20395;-63
2022/08/07 12:57:37;;;;;;;3.35;2.45;;;25.90;56.40;;;;;;5042931;28;20091;-63
2022/08/07 13:00:09;;;;;;;3.58;2.05;;;25.90;57.00;;;;;;5038857;28;20037;-63
2022/08/07 13:02:40;;;;;;;3.95;1.80;;;25.90;57.60;;;;;;5041408;28;20044;-63
2022/08/07 13:05:32;;;;;;;2.90;1.92;;;26.00;57.60;;;;;;5016608;28;20550;-64
2022/08/07 13:08:26;;;;;;;2.22;1.65;;;26.10;57.10;;;;;;5011936;28;20052;-64
2022/08/07 13:11:01;;;;;;;2.95;1.90;;;26.00;56.50;;;;;;5034177;28;20041;-66
2022/08/07 13:13:55;;;;;;;3.28;2.08;;;25.90;56.40;;;;;;5035406;28;20044;-63
2022/08/07 13:16:54;;;;;;;2.80;2.05;;;25.80;56.00;;;;;;5019000;28;20041;-63
2022/08/07 13:19:32;;;;;;;2.95;2.00;;;25.60;55.70;;;;;;5032835;28;20052;-66
2022/08/07 13:22:29;;;;;;;2.10;1.80;;;25.60;56.70;;;;;;5038586;28;20086;-63
2022/08/07 13:25:02;;;;;;;2.90;2.20;;;25.70;57.30;;;;;;5059001;27;20109;-63